Time;durP1;ratioP1;P1;durP2;ratioP2;P2;SDS_P1;SDS_P2;PMS_P1;PMS_P2;Temp;Humidity;BMP_temperature;BMP_pressure;BME280_temperature;BME280_humidity;BME280_pressure;Samples;Min_cycle;Max_cycle;Signal;HPM_P1;HPM_P2
2022/06/16 00:01:06;;;;;;;4.10;3.28;;;20.50;99.90;;;;;;5094673;28;20177;-81
2022/06/16 00:03:31;;;;;;;4.90;3.72;;;20.50;99.90;;;;;;5094594;28;20166;-81
2022/06/16 00:05:57;;;;;;;8.50;3.83;;;20.40;99.90;;;;;;5110173;28;20687;-81
2022/06/16 00:08:22;;;;;;;4.55;3.65;;;20.40;99.90;;;;;;5110396;28;20181;-79
2022/06/16 00:13:38;;;;;;;11.65;4.13;;;20.30;99.90;;;;;;5094295;28;20213;-82
2022/06/16 00:16:05;;;;;;;9.38;3.53;;;20.20;99.90;;;;;;5094532;28;20181;-82
2022/06/16 00:18:31;;;;;;;8.35;3.58;;;20.10;99.90;;;;;;5093138;28;20664;-82
2022/06/16 00:20:57;;;;;;;4.07;3.65;;;19.80;99.90;;;;;;5110273;28;20203;-82
2022/06/16 00:23:22;;;;;;;3.67;3.20;;;19.70;99.90;;;;;;5094120;28;20166;-81
2022/06/16 00:25:48;;;;;;;11.25;3.58;;;19.80;99.90;;;;;;5093813;28;20695;-80
2022/06/16 00:28:14;;;;;;;3.97;3.60;;;20.00;99.90;;;;;;5093913;28;20647;-82
2022/06/16 00:30:39;;;;;;;3.78;3.38;;;20.10;99.90;;;;;;5094004;28;20180;-81
2022/06/16 00:33:06;;;;;;;11.43;3.72;;;20.00;99.90;;;;;;5109757;28;20203;-82
2022/06/16 00:35:34;;;;;;;3.28;3.05;;;20.00;99.90;;;;;;5093735;28;20527;-82
2022/06/16 00:38:00;;;;;;;7.00;3.47;;;19.90;99.90;;;;;;5109330;28;20564;-82
2022/06/16 00:40:26;;;;;;;5.70;4.35;;;19.80;99.90;;;;;;5093978;28;20174;-82
2022/06/16 00:42:51;;;;;;;12.65;3.75;;;19.80;99.90;;;;;;5093797;28;20677;-82
2022/06/16 00:45:42;;;;;;;11.23;4.03;;;19.70;99.90;;;;;;5109538;28;20292;-82
2022/06/16 00:48:10;;;;;;;6.00;3.90;;;19.70;99.90;;;;;;5093628;28;20198;-82
2022/06/16 00:50:36;;;;;;;4.72;3.22;;;19.60;99.90;;;;;;5093963;28;20252;-81
2022/06/16 00:53:02;;;;;;;4.05;3.72;;;19.70;99.90;;;;;;5093530;28;20162;-81
2022/06/16 00:55:28;;;;;;;4.38;3.97;;;19.40;99.90;;;;;;5109056;28;20254;-82
2022/06/16 00:57:54;;;;;;;5.70;3.58;;;19.50;99.90;;;;;;5093431;28;20221;-81
2022/06/16 01:02:59;;;;;;;6.13;3.92;;;19.40;99.90;;;;;;5093781;28;20177;-82
2022/06/16 01:05:25;;;;;;;4.10;3.47;;;19.40;99.90;;;;;;5093400;28;20211;-82
2022/06/16 01:07:52;;;;;;;5.25;4.13;;;19.40;99.90;;;;;;5109159;28;20221;-82
2022/06/16 01:10:18;;;;;;;7.22;3.90;;;19.30;99.90;;;;;;5093556;28;20209;-82
2022/06/16 01:15:49;;;;;;;5.78;4.25;;;19.30;99.90;;;;;;5104350;28;20983;-81
2022/06/16 01:18:45;;;;;;;11.52;4.15;;;19.40;99.90;;;;;;5126740;28;20284;-82
2022/06/16 01:21:29;;;;;;;8.90;3.90;;;19.50;99.90;;;;;;5076177;28;20187;-82
2022/06/16 01:24:04;;;;;;;12.73;4.50;;;19.30;99.90;;;;;;5093149;28;20208;-82
2022/06/16 01:26:38;;;;;;;13.15;4.82;;;19.30;99.90;;;;;;5092954;28;20223;-82
2022/06/16 01:29:25;;;;;;;4.88;4.03;;;19.50;99.90;;;;;;5092715;28;20200;-82
2022/06/16 01:32:11;;;;;;;6.72;4.30;;;19.30;99.90;;;;;;5108508;28;20205;-82
2022/06/16 01:35:06;;;;;;;14.18;4.22;;;19.20;99.90;;;;;;5093130;28;20158;-82
2022/06/16 01:37:40;;;;;;;10.60;5.00;;;19.40;99.90;;;;;;5063263;28;20216;-82
2022/06/16 01:40:27;;;;;;;6.22;4.05;;;19.50;99.90;;;;;;5108693;28;20165;-81
2022/06/16 01:42:53;;;;;;;17.70;4.53;;;19.50;99.90;;;;;;5108515;28;20664;-81
2022/06/16 01:45:32;;;;;;;7.80;4.85;;;19.10;99.90;;;;;;5108421;28;20214;-83
2022/06/16 01:47:58;;;;;;;5.82;3.95;;;19.10;99.90;;;;;;5092653;28;20762;-83
2022/06/16 01:50:40;;;;;;;5.00;4.00;;;19.00;99.90;;;;;;5092917;28;20169;-82
2022/06/16 01:53:10;;;;;;;5.57;4.35;;;18.80;99.90;;;;;;5092763;28;20170;-82
2022/06/16 01:55:41;;;;;;;5.78;4.85;;;18.80;99.90;;;;;;5092681;28;20180;-82
2022/06/16 01:58:12;;;;;;;6.10;4.22;;;18.80;99.90;;;;;;5092754;28;20182;-82
2022/06/16 02:00:40;;;;;;;6.75;4.63;;;18.80;99.90;;;;;;5092688;28;20253;-81
2022/06/16 02:03:21;;;;;;;5.97;4.72;;;18.60;99.90;;;;;;5108471;28;20177;-82
2022/06/16 02:06:17;;;;;;;5.78;4.13;;;18.70;99.90;;;;;;5092698;28;20213;-82
2022/06/16 02:08:48;;;;;;;7.03;4.72;;;18.80;99.90;;;;;;5087031;28;20188;-81
2022/06/16 02:11:30;;;;;;;4.70;4.13;;;19.00;99.90;;;;;;5093369;28;20170;-81
2022/06/16 02:14:17;;;;;;;7.20;4.25;;;18.90;99.90;;;;;;5092364;28;20172;-83
2022/06/16 02:16:44;;;;;;;6.07;4.35;;;18.80;99.90;;;;;;5108086;28;20190;-83
2022/06/16 02:19:16;;;;;;;4.78;4.32;;;18.70;99.90;;;;;;5108277;28;20648;-82
2022/06/16 02:21:48;;;;;;;7.60;4.35;;;18.70;99.90;;;;;;5092394;28;20180;-81
2022/06/16 02:24:26;;;;;;;8.35;4.68;;;18.40;99.90;;;;;;5092298;28;20196;-81
2022/06/16 02:26:58;;;;;;;6.75;4.72;;;18.60;99.90;;;;;;5107945;28;20190;-82
2022/06/16 02:29:34;;;;;;;7.25;5.50;;;18.50;99.90;;;;;;5108044;28;20180;-81
2022/06/16 02:32:15;;;;;;;7.05;4.63;;;18.50;99.90;;;;;;5091173;28;20234;-82
2022/06/16 02:34:56;;;;;;;7.18;4.97;;;18.40;99.90;;;;;;5092335;28;20173;-81
2022/06/16 02:37:44;;;;;;;11.18;5.47;;;18.60;99.90;;;;;;5107672;28;20248;-81
2022/06/16 02:40:32;;;;;;;5.00;4.57;;;18.60;99.90;;;;;;5092268;28;20174;-82
2022/06/16 02:43:26;;;;;;;6.07;5.07;;;18.60;99.90;;;;;;5111889;28;20169;-82
2022/06/16 02:46:02;;;;;;;8.43;5.32;;;18.50;99.90;;;;;;5111393;28;20711;-82
2022/06/16 02:48:39;;;;;;;6.50;4.93;;;18.10;99.90;;;;;;5096212;28;20268;-83
2022/06/16 02:51:16;;;;;;;12.05;5.53;;;18.10;99.90;;;;;;5111740;28;20177;-82
2022/06/16 02:54:10;;;;;;;4.95;4.43;;;18.10;99.90;;;;;;5095889;28;20172;-81
2022/06/16 02:56:56;;;;;;;10.90;4.93;;;17.90;99.90;;;;;;5095737;28;20323;-82
2022/06/16 02:59:27;;;;;;;12.00;5.60;;;17.90;99.90;;;;;;5111562;28;20538;-81
2022/06/16 03:02:03;;;;;;;5.78;4.80;;;17.90;99.90;;;;;;5111593;28;20771;-81
2022/06/16 03:04:44;;;;;;;9.25;5.35;;;17.90;99.90;;;;;;5111510;28;20201;-81
2022/06/16 03:07:14;;;;;;;11.05;5.22;;;17.70;99.90;;;;;;5095517;28;20198;-81
2022/06/16 03:09:40;;;;;;;6.60;5.63;;;17.70;99.90;;;;;;5095681;28;20200;-81
2022/06/16 03:12:08;;;;;;;7.15;5.45;;;17.90;99.90;;;;;;5095358;28;20169;-82
2022/06/16 03:14:34;;;;;;;6.63;5.95;;;17.90;99.90;;;;;;5095398;28;20184;-82
2022/06/16 03:17:01;;;;;;;6.78;5.50;;;18.00;99.90;;;;;;5095378;28;20649;-82
2022/06/16 03:19:27;;;;;;;14.75;5.88;;;17.90;99.90;;;;;;5095565;28;20177;-81
2022/06/16 03:21:54;;;;;;;7.43;6.07;;;17.70;99.90;;;;;;5095351;28;20162;-83
2022/06/16 03:24:20;;;;;;;13.25;6.50;;;17.70;99.90;;;;;;5095324;28;20323;-83
2022/06/16 03:26:46;;;;;;;8.05;5.53;;;17.70;99.90;;;;;;5094996;28;20601;-81
2022/06/16 03:29:11;;;;;;;13.50;6.55;;;17.80;99.90;;;;;;5095299;28;20170;-82
2022/06/16 03:31:37;;;;;;;6.80;6.03;;;17.90;99.90;;;;;;5095296;28;20712;-82
2022/06/16 03:34:03;;;;;;;11.80;6.50;;;17.70;99.90;;;;;;5095666;28;20166;-80
2022/06/16 03:36:28;;;;;;;8.32;6.05;;;17.70;99.90;;;;;;5095116;28;20173;-82
2022/06/16 03:38:54;;;;;;;7.50;6.35;;;17.60;99.90;;;;;;5110626;28;20594;-81
2022/06/16 03:41:19;;;;;;;15.70;6.10;;;17.50;99.90;;;;;;5095170;28;20184;-80
2022/06/16 03:43:45;;;;;;;5.75;5.32;;;17.50;99.90;;;;;;5110882;28;20162;-81
2022/06/16 03:46:14;;;;;;;11.68;6.28;;;17.20;99.90;;;;;;5095264;28;20204;-81
2022/06/16 03:48:40;;;;;;;10.02;5.70;;;17.50;99.90;;;;;;5111453;28;20170;-82
2022/06/16 03:51:07;;;;;;;12.07;5.88;;;17.30;99.90;;;;;;5122530;28;20204;-80
2022/06/16 03:53:33;;;;;;;7.53;5.78;;;17.30;99.90;;;;;;5111692;28;20157;-81
2022/06/16 03:55:58;;;;;;;14.80;6.55;;;17.50;99.90;;;;;;5095660;28;20267;-81
2022/06/16 03:58:24;;;;;;;10.05;6.25;;;17.60;99.90;;;;;;5094820;28;20239;-81
2022/06/16 04:00:50;;;;;;;12.38;6.20;;;17.60;99.90;;;;;;5095637;28;20166;-84
2022/06/16 04:06:01;;;;;;;10.77;5.80;;;18.40;99.90;;;;;;5094538;28;20270;-82
2022/06/16 04:08:26;;;;;;;9.00;5.45;;;18.70;99.90;;;;;;5093411;28;20189;-82
2022/06/16 04:10:52;;;;;;;5.45;4.75;;;18.80;99.90;;;;;;5110064;28;20522;-82
2022/06/16 04:13:18;;;;;;;13.73;5.50;;;19.10;99.90;;;;;;5094151;28;20215;-82
2022/06/16 04:15:43;;;;;;;5.55;5.03;;;19.40;99.90;;;;;;5093976;28;20560;-80
2022/06/16 04:18:09;;;;;;;12.35;6.30;;;19.60;99.90;;;;;;5094288;28;20189;-81
2022/06/16 04:20:35;;;;;;;11.25;5.65;;;19.80;99.90;;;;;;5109916;28;20173;-81
2022/06/16 04:23:01;;;;;;;7.32;5.55;;;19.80;99.90;;;;;;5094181;28;20185;-82
2022/06/16 04:25:30;;;;;;;8.77;4.72;;;19.60;99.90;;;;;;5109892;28;20305;-82
2022/06/16 04:28:04;;;;;;;9.77;5.07;;;19.50;99.90;;;;;;5093934;28;20266;-81
2022/06/16 04:30:31;;;;;;;10.27;5.45;;;19.60;99.90;;;;;;5110106;28;20219;-82
2022/06/16 04:32:58;;;;;;;10.00;5.80;;;19.50;99.90;;;;;;5109583;28;20598;-84
2022/06/16 04:35:25;;;;;;;7.75;5.20;;;19.10;99.90;;;;;;5109979;28;20186;-82
2022/06/16 04:37:51;;;;;;;6.40;5.78;;;18.90;99.90;;;;;;5092690;28;20193;-82
2022/06/16 04:40:17;;;;;;;7.78;4.97;;;18.80;99.90;;;;;;5109588;28;20162;-82
2022/06/16 04:42:42;;;;;;;9.38;4.93;;;18.60;99.90;;;;;;5109287;28;20162;-80
2022/06/16 04:45:10;;;;;;;7.88;6.20;;;18.70;99.90;;;;;;5109178;28;20250;-82
2022/06/16 04:47:37;;;;;;;10.93;5.72;;;18.80;99.90;;;;;;5093477;28;20261;-81
2022/06/16 04:50:03;;;;;;;7.20;5.53;;;18.60;99.90;;;;;;5094002;28;20178;-81
2022/06/16 04:52:28;;;;;;;8.52;5.95;;;18.50;99.90;;;;;;5110013;28;20582;-81
2022/06/16 04:54:54;;;;;;;12.18;5.65;;;18.40;99.90;;;;;;5094325;28;20730;-81
2022/06/16 04:57:19;;;;;;;7.18;5.63;;;18.50;99.90;;;;;;5094959;28;20586;-81
2022/06/16 04:59:45;;;;;;;17.23;6.43;;;18.50;99.90;;;;;;5110325;28;20176;-80
2022/06/16 05:02:10;;;;;;;5.63;5.18;;;18.50;99.90;;;;;;5094936;28;20219;-81
2022/06/16 05:04:39;;;;;;;12.82;6.55;;;18.40;99.90;;;;;;5110309;28;20263;-81
2022/06/16 05:07:06;;;;;;;5.75;5.25;;;18.50;99.90;;;;;;5094637;28;20216;-80
2022/06/16 05:09:31;;;;;;;13.07;6.30;;;18.40;99.90;;;;;;5112433;28;20170;-82
2022/06/16 05:11:57;;;;;;;15.30;5.80;;;18.60;99.90;;;;;;5123482;28;20248;-84
2022/06/16 05:14:23;;;;;;;13.43;6.32;;;18.60;99.90;;;;;;5127220;28;20158;-82
2022/06/16 05:16:49;;;;;;;9.30;5.85;;;18.70;99.90;;;;;;5112716;28;20165;-81
2022/06/16 05:19:14;;;;;;;14.75;6.63;;;18.70;99.90;;;;;;5113244;28;20192;-81
2022/06/16 05:21:40;;;;;;;19.17;8.60;;;18.50;99.90;;;;;;5111668;28;20213;-82
2022/06/16 05:24:06;;;;;;;8.35;6.80;;;18.60;99.90;;;;;;5112177;28;20174;-81
2022/06/16 05:26:31;;;;;;;17.58;6.40;;;18.60;99.90;;;;;;5127927;28;20217;-82
2022/06/16 05:28:57;;;;;;;9.20;5.82;;;18.80;99.90;;;;;;5110799;28;20535;-82
2022/06/16 05:31:25;;;;;;;26.38;6.90;;;18.70;99.90;;;;;;5109231;28;20205;-81
2022/06/16 05:33:51;;;;;;;10.55;5.93;;;18.80;99.90;;;;;;5108703;28;20185;-82
2022/06/16 05:36:18;;;;;;;29.15;5.85;;;19.00;99.90;;;;;;5092736;28;20625;-81
2022/06/16 05:38:44;;;;;;;12.77;5.72;;;19.20;99.90;;;;;;5093195;28;20193;-81
2022/06/16 05:41:16;;;;;;;10.65;5.75;;;19.10;99.90;;;;;;5092929;28;20161;-81
2022/06/16 05:43:43;;;;;;;15.23;4.95;;;18.90;99.90;;;;;;5108755;28;20693;-82
2022/06/16 05:46:16;;;;;;;19.33;5.70;;;18.90;99.90;;;;;;5108709;28;20213;-81
2022/06/16 05:48:41;;;;;;;9.57;5.07;;;19.10;99.90;;;;;;5108440;28;20162;-81
2022/06/16 05:51:10;;;;;;;5.32;4.78;;;19.10;99.90;;;;;;5092695;28;20192;-82
2022/06/16 05:53:37;;;;;;;8.10;4.85;;;19.10;99.90;;;;;;5091407;28;20201;-83
2022/06/16 05:56:03;;;;;;;7.03;5.20;;;19.30;99.90;;;;;;5108034;28;20536;-81
2022/06/16 05:58:29;;;;;;;9.25;4.90;;;19.20;99.90;;;;;;5108219;28;20190;-81
2022/06/16 06:00:55;;;;;;;8.00;5.03;;;19.20;99.90;;;;;;5092539;28;20161;-81
2022/06/16 06:03:21;;;;;;;5.72;4.60;;;19.20;99.90;;;;;;5092917;28;20215;-83
2022/06/16 06:05:47;;;;;;;6.68;5.32;;;19.20;99.90;;;;;;5092880;28;20205;-84
2022/06/16 06:16:29;;;;;;;12.82;5.95;;;19.50;99.90;;;;;;5094420;28;20640;-83
2022/06/16 06:18:59;;;;;;;8.95;5.68;;;19.50;99.90;;;;;;5097008;28;20157;-81
2022/06/16 06:24:11;;;;;;;10.60;5.55;;;19.40;99.90;;;;;;5100024;28;20751;-81
2022/06/16 06:26:37;;;;;;;14.82;5.72;;;19.40;99.90;;;;;;5110186;28;20186;-81
2022/06/16 06:29:04;;;;;;;15.93;5.85;;;19.70;99.90;;;;;;5114743;28;20633;-82
2022/06/16 06:31:29;;;;;;;10.98;5.63;;;19.90;99.90;;;;;;5097493;28;20572;-83
2022/06/16 06:33:55;;;;;;;18.05;5.88;;;19.80;99.90;;;;;;5097206;28;20158;-83
2022/06/16 06:36:20;;;;;;;12.98;5.72;;;19.90;99.90;;;;;;5096471;28;20601;-84
2022/06/16 06:38:46;;;;;;;24.33;7.22;;;19.90;99.90;;;;;;5112250;28;20166;-86
2022/06/16 06:41:12;;;;;;;9.27;5.57;;;20.10;99.90;;;;;;5096574;28;20474;-85
2022/06/16 06:43:37;;;;;;;13.93;6.22;;;20.10;99.90;;;;;;5111894;28;20261;-81
2022/06/16 06:46:03;;;;;;;13.05;5.18;;;20.30;99.90;;;;;;5096608;28;20279;-85
2022/06/16 06:48:28;;;;;;;13.85;6.00;;;20.40;99.90;;;;;;5096286;28;20688;-85
2022/06/16 06:50:54;;;;;;;75.00;9.73;;;20.60;99.90;;;;;;5111713;28;20173;-82
2022/06/16 06:53:19;;;;;;;40.15;6.18;;;21.30;99.90;;;;;;5095976;28;20700;-82
2022/06/16 06:55:47;;;;;;;16.75;5.82;;;22.00;99.90;;;;;;5095068;28;20720;-81
2022/06/16 06:58:19;;;;;;;15.20;4.65;;;22.50;99.90;;;;;;5111779;28;20223;-85
2022/06/16 07:00:45;;;;;;;14.25;5.28;;;23.30;99.90;;;;;;5096516;28;20166;-85
2022/06/16 07:03:10;;;;;;;33.28;6.78;;;24.00;99.90;;;;;;5111480;28;20256;-82
2022/06/16 07:05:37;;;;;;;8.43;4.10;;;24.30;99.90;;;;;;5111790;28;20208;-84
2022/06/16 07:08:04;;;;;;;61.42;7.50;;;24.70;99.90;;;;;;5096387;28;20201;-83
2022/06/16 07:10:30;;;;;;;36.65;7.78;;;25.30;99.90;;;;;;5095996;28;20633;-85
2022/06/16 07:12:55;;;;;;;14.35;5.07;;;25.60;99.90;;;;;;5094735;28;20249;-85
2022/06/16 07:15:21;;;;;;;21.02;5.75;;;25.90;99.90;;;;;;5094440;28;20182;-82
2022/06/16 07:17:47;;;;;;;8.60;4.07;;;26.20;99.90;;;;;;5096154;28;20188;-83
2022/06/16 07:20:15;;;;;;;29.83;5.35;;;26.20;99.90;;;;;;5112528;28;20655;-82
2022/06/16 07:22:41;;;;;;;29.05;5.30;;;25.90;99.90;;;;;;5111547;28;20641;-84
2022/06/16 07:25:07;;;;;;;15.32;4.68;;;26.00;99.90;;;;;;5095862;28;20201;-83
2022/06/16 07:27:33;;;;;;;37.75;6.20;;;25.80;99.90;;;;;;5094652;28;20186;-85
2022/06/16 07:29:59;;;;;;;9.90;4.22;;;26.00;99.90;;;;;;5094443;28;20502;-84
2022/06/16 07:32:24;;;;;;;13.25;4.68;;;26.80;99.90;;;;;;5110838;28;20217;-84
2022/06/16 07:34:50;;;;;;;52.40;6.97;;;26.70;99.90;;;;;;5094975;28;20166;-85
2022/06/16 07:37:17;;;;;;;19.23;5.68;;;26.20;99.90;;;;;;5095043;28;20205;-85
2022/06/16 07:39:43;;;;;;;8.95;4.57;;;26.20;99.90;;;;;;5094335;28;20260;-86
2022/06/16 07:42:09;;;;;;;11.77;5.22;;;25.90;99.90;;;;;;5111154;28;20208;-86
2022/06/16 07:44:36;;;;;;;25.77;5.57;;;26.70;99.90;;;;;;5110854;28;20197;-85
2022/06/16 07:47:02;;;;;;;12.93;4.90;;;26.70;99.90;;;;;;5110599;28;20217;-85
2022/06/16 07:49:29;;;;;;;9.13;3.85;;;25.90;99.90;;;;;;5110847;28;20190;-85
2022/06/16 07:51:57;;;;;;;37.92;6.43;;;26.30;99.90;;;;;;5110830;28;20665;-85
2022/06/16 07:54:23;;;;;;;26.75;4.63;;;26.20;99.90;;;;;;5093635;28;20213;-84
2022/06/16 07:56:50;;;;;;;10.95;3.83;;;25.90;99.90;;;;;;5095143;28;20182;-86
2022/06/16 07:59:15;;;;;;;35.53;6.93;;;25.90;99.90;;;;;;5111846;28;20173;-86
2022/06/16 08:01:41;;;;;;;8.95;3.97;;;25.20;99.90;;;;;;5097245;28;20204;-85
2022/06/16 08:04:07;;;;;;;8.10;4.43;;;24.90;99.90;;;;;;5112382;28;20177;-85
2022/06/16 08:06:35;;;;;;;51.50;6.30;;;24.70;99.90;;;;;;5110998;28;20193;-85
2022/06/16 08:09:04;;;;;;;18.15;4.28;;;24.30;99.90;;;;;;5094647;28;20170;-85
2022/06/16 08:14:14;;;;;;;8.27;4.13;;;24.00;99.90;;;;;;5100096;28;20169;-85
2022/06/16 08:16:42;;;;;;;12.05;5.03;;;23.80;99.90;;;;;;5119602;28;20174;-84
2022/06/16 08:19:08;;;;;;;7.43;4.68;;;23.50;99.90;;;;;;5111325;28;20170;-84
2022/06/16 08:21:34;;;;;;;5.15;4.32;;;23.70;99.90;;;;;;5094838;28;20614;-84
2022/06/16 08:24:00;;;;;;;19.70;4.63;;;23.50;99.90;;;;;;5110799;28;20625;-85
2022/06/16 08:26:25;;;;;;;11.65;6.10;;;23.50;99.90;;;;;;5094115;28;20212;-86
2022/06/16 08:28:53;;;;;;;24.70;4.55;;;23.30;99.90;;;;;;5113723;28;20178;-85
2022/06/16 08:31:20;;;;;;;10.82;4.90;;;23.40;99.90;;;;;;5113655;28;20208;-84
2022/06/16 08:33:48;;;;;;;17.05;4.57;;;23.40;99.90;;;;;;5112127;28;20168;-86
2022/06/16 08:36:13;;;;;;;12.60;3.90;;;23.40;99.90;;;;;;5095099;28;20215;-86
2022/06/16 08:38:39;;;;;;;14.65;4.22;;;23.30;99.90;;;;;;5095188;28;20177;-83
2022/06/16 08:41:13;;;;;;;14.57;4.18;;;23.10;99.90;;;;;;5111901;28;20238;-83
2022/06/16 08:44:10;;;;;;;10.40;3.67;;;23.10;99.90;;;;;;5114856;28;20537;-85
2022/06/16 08:46:58;;;;;;;7.30;4.05;;;23.20;99.90;;;;;;5068833;28;20574;-86
2022/06/16 08:49:42;;;;;;;2.97;2.60;;;23.30;99.90;;;;;;5084149;28;20187;-86
2022/06/16 08:52:28;;;;;;;19.73;3.42;;;23.50;99.90;;;;;;5111071;28;20172;-84
2022/06/16 08:55:16;;;;;;;5.45;3.38;;;23.60;99.90;;;;;;5109570;28;20189;-85
2022/06/16 08:57:59;;;;;;;9.85;2.95;;;23.70;99.90;;;;;;5110023;28;20198;-84
2022/06/16 09:00:32;;;;;;;12.75;2.65;;;23.60;99.90;;;;;;5111594;28;20664;-84
2022/06/16 09:03:33;;;;;;;29.48;4.47;;;23.50;99.90;;;;;;5118016;28;20165;-85
2022/06/16 09:06:06;;;;;;;4.38;2.78;;;23.40;99.90;;;;;;5120487;28;20208;-84
2022/06/16 09:09:12;;;;;;;4.75;3.08;;;23.50;99.90;;;;;;5109898;28;20182;-84
2022/06/16 09:12:02;;;;;;;4.13;2.80;;;23.60;99.90;;;;;;5062595;28;20218;-84
2022/06/16 09:15:20;;;;;;;5.80;2.53;;;23.60;99.90;;;;;;5109428;28;20169;-85
2022/06/16 09:18:05;;;;;;;12.35;3.25;;;23.80;99.90;;;;;;5109240;28;20189;-85
2022/06/16 09:20:58;;;;;;;18.67;2.88;;;23.80;99.90;;;;;;5109539;28;20214;-84
2022/06/16 09:23:42;;;;;;;10.10;3.22;;;24.00;99.90;;;;;;5109379;28;20219;-85
2022/06/16 09:26:23;;;;;;;4.78;3.10;;;24.00;99.90;;;;;;5109178;28;20227;-86
2022/06/16 09:29:00;;;;;;;5.43;2.90;;;23.90;99.90;;;;;;5108951;28;20177;-84
2022/06/16 09:31:35;;;;;;;15.30;3.28;;;23.80;99.90;;;;;;5091832;28;20237;-85
2022/06/16 09:34:15;;;;;;;9.85;4.22;;;23.90;99.90;;;;;;5108845;28;20169;-85
2022/06/16 09:36:50;;;;;;;5.00;2.67;;;24.10;99.90;;;;;;5108663;28;20185;-85
2022/06/16 09:39:24;;;;;;;4.15;3.20;;;24.10;99.90;;;;;;5109506;28;20640;-84
2022/06/16 09:42:35;;;;;;;8.38;2.95;;;23.90;99.90;;;;;;5122527;28;20172;-85
2022/06/16 09:45:30;;;;;;;6.57;2.97;;;23.90;99.90;;;;;;5128571;28;20243;-86
2022/06/16 09:48:08;;;;;;;7.80;3.72;;;24.10;99.90;;;;;;5086260;28;20332;-85
2022/06/16 09:50:48;;;;;;;6.07;3.30;;;24.00;99.90;;;;;;5073610;28;20533;-82
2022/06/16 09:53:53;;;;;;;5.30;2.83;;;24.00;99.90;;;;;;5070600;28;20554;-83
2022/06/16 09:56:24;;;;;;;6.60;2.50;;;24.10;99.90;;;;;;5056232;28;20182;-84
2022/06/16 09:58:56;;;;;;;16.45;3.75;;;24.40;99.90;;;;;;5077571;28;20626;-84
2022/06/16 10:01:26;;;;;;;7.60;3.80;;;24.40;99.90;;;;;;5070949;28;20170;-89
2022/06/16 10:03:57;;;;;;;9.65;3.25;;;24.50;99.90;;;;;;5074561;28;20171;-84
2022/06/16 10:06:38;;;;;;;8.23;2.97;;;24.30;99.90;;;;;;5072182;28;20206;-82
2022/06/16 10:09:36;;;;;;;5.13;2.65;;;24.30;99.90;;;;;;5071150;28;20270;-84
2022/06/16 10:12:15;;;;;;;3.85;2.33;;;24.30;99.90;;;;;;5073093;28;20201;-85
2022/06/16 10:14:55;;;;;;;13.68;3.08;;;24.50;99.90;;;;;;5072985;28;20170;-84
2022/06/16 10:17:23;;;;;;;4.00;2.03;;;24.30;99.90;;;;;;5072462;28;20190;-84
2022/06/16 10:19:51;;;;;;;3.42;2.15;;;24.30;99.90;;;;;;5071982;28;20204;-84
2022/06/16 10:22:21;;;;;;;4.68;2.47;;;24.60;99.90;;;;;;5071322;28;20170;-84
2022/06/16 10:25:02;;;;;;;2.60;2.35;;;24.80;99.80;;;;;;5070989;28;20202;-82
2022/06/16 10:27:49;;;;;;;3.90;2.25;;;24.60;99.60;;;;;;5072725;28;20620;-88
2022/06/16 10:30:35;;;;;;;6.35;2.55;;;24.60;98.60;;;;;;5072093;28;20176;-86
2022/06/16 10:33:14;;;;;;;6.10;1.88;;;24.50;98.50;;;;;;5072866;28;20367;-87
2022/06/16 10:36:05;;;;;;;3.92;2.53;;;24.60;99.30;;;;;;5086869;28;20169;-84
2022/06/16 10:38:38;;;;;;;11.95;2.20;;;24.60;99.20;;;;;;5090927;28;20194;-83
2022/06/16 10:41:21;;;;;;;4.80;2.17;;;24.80;99.70;;;;;;5092586;28;20162;-84
2022/06/16 10:43:48;;;;;;;6.90;2.20;;;24.70;99.10;;;;;;5090937;28;20189;-83
2022/06/16 10:46:19;;;;;;;2.65;2.20;;;24.60;99.60;;;;;;5092729;28;20244;-84
2022/06/16 10:48:50;;;;;;;23.05;3.20;;;24.80;99.40;;;;;;5090891;28;20186;-85
2022/06/16 10:51:21;;;;;;;5.28;2.33;;;24.80;99.30;;;;;;5091345;28;20198;-85
2022/06/16 10:53:59;;;;;;;5.93;2.00;;;24.70;98.60;;;;;;5099321;28;20162;-84
2022/06/16 10:56:26;;;;;;;2.75;2.13;;;24.60;98.90;;;;;;5101520;28;20176;-85
2022/06/16 10:59:14;;;;;;;2.83;1.92;;;24.70;98.50;;;;;;5088786;28;20181;-86
2022/06/16 11:01:53;;;;;;;10.52;2.20;;;24.80;97.60;;;;;;5103320;28;20209;-85
2022/06/16 11:04:25;;;;;;;8.98;2.30;;;24.80;97.90;;;;;;5092259;28;20172;-86
2022/06/16 11:06:57;;;;;;;5.72;2.08;;;24.90;97.60;;;;;;5095491;28;20194;-86
2022/06/16 11:09:32;;;;;;;7.60;1.98;;;25.00;96.60;;;;;;5096614;28;20169;-85
2022/06/16 11:12:14;;;;;;;5.55;2.10;;;25.10;97.70;;;;;;5096041;28;20189;-89
2022/06/16 11:14:55;;;;;;;2.00;1.88;;;25.00;97.00;;;;;;5096605;28;20652;-87
2022/06/16 11:17:29;;;;;;;3.60;2.47;;;25.10;96.50;;;;;;5099812;28;20199;-89
2022/06/16 11:20:09;;;;;;;6.32;2.20;;;25.20;96.90;;;;;;5082077;28;20155;-85
2022/06/16 11:22:40;;;;;;;3.33;2.05;;;25.50;96.80;;;;;;5109017;28;20231;-83
2022/06/16 11:25:30;;;;;;;25.98;5.25;;;25.60;97.10;;;;;;5112035;28;20210;-82
2022/06/16 11:27:58;;;;;;;101.32;8.30;;;25.50;97.20;;;;;;5100048;28;20190;-82
2022/06/16 11:30:37;;;;;;;2.90;2.60;;;25.20;97.70;;;;;;5105365;28;20165;-82
2022/06/16 11:33:06;;;;;;;13.68;2.35;;;25.10;95.90;;;;;;5096789;28;20219;-83
2022/06/16 11:35:56;;;;;;;5.35;1.92;;;25.00;96.00;;;;;;5095397;28;20249;-84
2022/06/16 11:38:31;;;;;;;7.97;1.92;;;25.10;96.20;;;;;;5106737;28;20193;-84
2022/06/16 11:41:07;;;;;;;7.15;2.35;;;25.20;96.30;;;;;;5123907;28;20181;-82
2022/06/16 11:44:11;;;;;;;9.48;2.13;;;25.20;95.00;;;;;;5094988;28;20252;-83
2022/06/16 11:46:57;;;;;;;2.72;1.60;;;25.30;95.20;;;;;;5095609;28;20193;-84
2022/06/16 11:49:41;;;;;;;21.70;2.67;;;25.20;95.70;;;;;;5093624;28;20589;-83
2022/06/16 11:52:38;;;;;;;4.00;1.60;;;25.10;95.50;;;;;;5073792;28;20181;-83
2022/06/16 11:55:20;;;;;;;3.10;1.80;;;25.20;95.00;;;;;;5090860;28;20630;-84
2022/06/16 11:58:19;;;;;;;8.43;2.97;;;25.10;94.90;;;;;;5091499;28;20200;-84
2022/06/16 12:01:12;;;;;;;8.73;1.98;;;25.00;95.40;;;;;;5111246;28;20169;-87
2022/06/16 12:03:56;;;;;;;1.73;1.50;;;25.00;95.60;;;;;;5111381;28;20166;-86
2022/06/16 12:06:42;;;;;;;4.30;1.85;;;25.20;95.80;;;;;;5111414;28;20787;-87
2022/06/16 12:09:25;;;;;;;3.00;2.20;;;25.20;96.10;;;;;;5112748;28;20281;-89
2022/06/16 12:12:01;;;;;;;5.95;1.55;;;25.10;95.30;;;;;;5080963;28;20652;-80
2022/06/16 12:15:01;;;;;;;8.27;2.50;;;25.20;95.00;;;;;;5077526;28;20189;-81
2022/06/16 12:17:52;;;;;;;2.67;1.95;;;25.20;94.90;;;;;;5078525;28;20277;-83
2022/06/16 12:20:30;;;;;;;5.97;1.90;;;25.50;94.90;;;;;;5076908;28;20487;-83
2022/06/16 12:23:05;;;;;;;6.90;1.83;;;25.60;94.80;;;;;;5082883;28;20179;-82
2022/06/16 12:26:16;;;;;;;4.88;1.95;;;25.80;95.20;;;;;;5088460;28;20217;-83
2022/06/16 12:29:05;;;;;;;5.35;2.08;;;25.70;94.40;;;;;;5052726;28;20646;-84
2022/06/16 12:32:05;;;;;;;10.10;1.85;;;25.60;95.10;;;;;;5078565;28;20174;-82
2022/06/16 12:34:57;;;;;;;5.50;2.00;;;25.70;94.80;;;;;;5093330;28;20190;-82
2022/06/16 12:37:33;;;;;;;17.08;2.38;;;25.50;95.10;;;;;;5073447;28;20202;-82
2022/06/16 12:40:03;;;;;;;14.00;2.35;;;25.40;95.90;;;;;;5081802;28;20232;-84
2022/06/16 12:42:37;;;;;;;16.50;2.33;;;25.60;95.30;;;;;;5072470;28;20193;-82
2022/06/16 12:45:07;;;;;;;4.45;2.10;;;25.80;96.00;;;;;;5076254;28;20251;-82
2022/06/16 12:47:57;;;;;;;10.25;2.30;;;25.80;95.50;;;;;;5097842;28;20198;-82
2022/06/16 12:50:27;;;;;;;9.43;1.95;;;25.70;95.30;;;;;;5073287;28;20170;-83
2022/06/16 12:53:11;;;;;;;4.43;1.60;;;25.80;95.30;;;;;;5079786;28;20672;-83
2022/06/16 12:56:04;;;;;;;19.70;2.50;;;25.90;95.30;;;;;;5097084;28;20243;-82
2022/06/16 12:59:01;;;;;;;13.85;1.90;;;26.20;94.50;;;;;;5087122;28;20208;-83
2022/06/16 13:01:27;;;;;;;4.90;2.65;;;26.20;93.70;;;;;;5069769;28;20675;-82
2022/06/16 13:04:20;;;;;;;4.40;2.10;;;26.10;93.10;;;;;;5091677;28;20178;-82
2022/06/16 13:06:50;;;;;;;3.50;1.73;;;25.90;93.70;;;;;;5095381;28;20212;-83
2022/06/16 13:09:16;;;;;;;6.68;1.65;;;26.00;93.90;;;;;;5093451;28;20182;-81
2022/06/16 13:12:13;;;;;;;8.20;1.77;;;25.90;93.80;;;;;;5101239;28;20647;-82
2022/06/16 13:14:50;;;;;;;7.25;1.60;;;26.10;93.80;;;;;;5071697;28;20261;-84
2022/06/16 13:17:22;;;;;;;4.18;1.67;;;26.20;94.40;;;;;;5094987;28;20198;-84
2022/06/16 13:19:55;;;;;;;1.67;1.45;;;26.10;93.80;;;;;;5101320;28;20158;-83
2022/06/16 13:22:42;;;;;;;4.50;1.95;;;26.00;93.80;;;;;;5094448;28;20146;-84
2022/06/16 13:25:16;;;;;;;4.72;2.15;;;26.10;94.00;;;;;;5102023;28;20276;-83
2022/06/16 13:27:53;;;;;;;1.98;1.38;;;26.20;93.60;;;;;;5084644;28;20257;-85
2022/06/16 13:30:36;;;;;;;1.77;1.65;;;26.20;93.40;;;;;;5101330;28;20166;-82
2022/06/16 13:33:08;;;;;;;8.32;1.83;;;26.30;94.00;;;;;;5090654;28;20184;-82
2022/06/16 13:35:40;;;;;;;10.45;1.75;;;26.20;93.80;;;;;;5083111;28;20161;-81
2022/06/16 13:38:05;;;;;;;7.10;2.25;;;26.30;93.80;;;;;;5086991;28;20193;-84
2022/06/16 13:40:34;;;;;;;2.28;1.40;;;26.50;93.60;;;;;;5093320;28;20197;-84